Terminal Aerodrome Forecast
Issued by NWS

Home | Current Version | Previous Version | Text Only | Print | Product List | Glossary On
Versions: 1 2 3 4 5 6 7 8 9 10 11 12 13 14 15 16 17 18 19 20 21
582
FTUS43 KDVN 270631 AAB
TAFCID
TAF AMD
KCID 270631Z 2707/2806 31012KT 5SM -RA OVC010
     FM271000 30012KT P6SM OVC015
     FM271600 29013KT P6SM BKN025
     FM271900 27014G22KT P6SM SCT035
     FM280000 31006KT P6SM SCT090=

USA.gov is the U.S. government's official web portal to all federal, state and local government web resources and services.